createdAt,value
2024-03-03T00:02:22.906Z,10.76
2024-03-03T00:04:49.409Z,10.36
2024-03-03T00:07:16.422Z,10.21
2024-03-03T00:09:46.521Z,10.57
2024-03-03T00:12:13.034Z,9.37
2024-03-03T00:14:39.496Z,10.11
2024-03-03T00:19:44.177Z,9.73
2024-03-03T00:22:10.775Z,10.44
2024-03-03T00:24:37.471Z,10.48
2024-03-03T00:27:04.231Z,10.05
2024-03-03T00:29:31.069Z,10.08
2024-03-03T00:32:02.687Z,9.57
2024-03-03T00:34:53.373Z,10.03
2024-03-03T00:37:19.944Z,9.48
2024-03-03T00:39:46.680Z,9.57
2024-03-03T00:42:13.185Z,9.78
2024-03-03T00:44:39.792Z,9.30
2024-03-03T00:47:06.765Z,9.59
2024-03-03T00:49:33.308Z,8.76
2024-03-03T00:52:00.473Z,9.36
2024-03-03T00:54:26.980Z,9.57
2024-03-03T00:56:53.466Z,8.95
2024-03-03T00:59:19.952Z,8.58
2024-03-03T01:01:46.421Z,8.79
2024-03-03T01:04:14.394Z,8.75
2024-03-03T01:06:40.966Z,9.27
2024-03-03T01:09:07.500Z,9.41
2024-03-03T01:11:36.503Z,8.95
2024-03-03T01:14:03.118Z,8.75
2024-03-03T01:16:29.581Z,8.63
2024-03-03T01:18:56.073Z,8.48
2024-03-03T01:21:22.627Z,8.83
2024-03-03T01:23:49.093Z,9.29
2024-03-03T01:26:15.557Z,9.22
2024-03-03T01:28:42.224Z,9.34
2024-03-03T01:31:08.771Z,10.07
2024-03-03T01:33:35.204Z,9.94
2024-03-03T01:36:02.056Z,9.85
2024-03-03T01:38:28.952Z,10.03
2024-03-03T01:40:55.404Z,9.82
2024-03-03T01:43:23.266Z,9.45
2024-03-03T01:45:49.862Z,9.36
2024-03-03T01:48:16.902Z,9.27
2024-03-03T01:50:44.082Z,9.39
2024-03-03T01:53:13.677Z,8.90
2024-03-03T01:55:41.686Z,9.82
2024-03-03T01:58:10.109Z,10.26
2024-03-03T02:00:36.843Z,9.26
2024-03-03T02:03:09.908Z,9.88
2024-03-03T02:05:37.323Z,10.17
2024-03-03T02:08:05.277Z,9.71
2024-03-03T02:10:33.256Z,9.35
2024-03-03T02:12:59.865Z,8.82
2024-03-03T02:15:35.451Z,8.45
2024-03-03T02:18:08.106Z,9.01
2024-03-03T02:20:34.674Z,8.78
2024-03-03T02:23:01.161Z,9.47
2024-03-03T02:25:28.474Z,8.84
2024-03-03T02:27:55.056Z,9.04
2024-03-03T02:30:21.545Z,9.09
2024-03-03T02:32:48.059Z,9.10
2024-03-03T02:35:15.733Z,9.67
2024-03-03T02:37:46.210Z,9.76
2024-03-03T02:40:12.852Z,9.72
2024-03-03T02:42:39.814Z,9.92
2024-03-03T02:45:08.045Z,9.99
2024-03-03T02:47:34.596Z,9.84
2024-03-03T02:50:13.354Z,9.66
2024-03-03T02:52:40.061Z,9.25
2024-03-03T02:55:06.935Z,9.06
2024-03-03T02:57:33.489Z,9.52
2024-03-03T03:00:00.010Z,9.59
2024-03-03T03:02:26.523Z,9.97
2024-03-03T03:04:53.775Z,10.20
2024-03-03T03:07:20.359Z,9.77
2024-03-03T03:09:47.097Z,9.86
2024-03-03T03:12:13.658Z,9.84
2024-03-03T03:14:40.769Z,9.42
2024-03-03T03:17:07.329Z,9.78
2024-03-03T03:19:33.833Z,10.16
2024-03-03T03:22:01.079Z,10.24
2024-03-03T03:24:27.955Z,10.31
2024-03-03T03:26:54.480Z,10.21
2024-03-03T03:29:20.955Z,9.35
2024-03-03T03:31:47.411Z,9.78
2024-03-03T03:34:13.892Z,9.49
2024-03-03T03:36:40.419Z,9.71
2024-03-03T03:39:13.213Z,10.16
2024-03-03T03:41:47.022Z,9.79
2024-03-03T03:44:13.897Z,9.75
2024-03-03T03:46:40.437Z,9.92
2024-03-03T03:49:11.236Z,9.90
2024-03-03T03:51:38.939Z,10.10
2024-03-03T03:54:06.509Z,10.11
2024-03-03T03:56:33.956Z,9.72
2024-03-03T03:59:02.121Z,9.57
2024-03-03T04:01:29.694Z,9.07
2024-03-03T04:03:57.120Z,8.53
2024-03-03T04:06:29.282Z,9.04
2024-03-03T04:08:55.885Z,9.25
2024-03-03T04:11:23.026Z,9.30
2024-03-03T04:16:24.885Z,9.28
2024-03-03T04:18:51.441Z,9.20
2024-03-03T04:21:18.014Z,9.68
2024-03-03T04:23:44.986Z,9.43
2024-03-03T04:26:13.710Z,9.11
2024-03-03T04:28:40.210Z,10.01
2024-03-03T04:31:07.254Z,10.21
2024-03-03T04:33:34.943Z,10.40
2024-03-03T04:36:01.514Z,9.97
2024-03-03T04:38:28.007Z,9.75
2024-03-03T04:40:54.498Z,10.23
2024-03-03T04:43:20.964Z,10.39
2024-03-03T04:45:47.604Z,9.93
2024-03-03T04:50:49.512Z,10.37
2024-03-03T04:53:16.023Z,10.21
2024-03-03T04:55:42.507Z,9.90
2024-03-03T04:58:09.020Z,10.10
2024-03-03T05:00:35.566Z,10.19
2024-03-03T05:03:02.093Z,9.11
2024-03-03T05:05:29.805Z,9.81
2024-03-03T05:07:57.608Z,9.35
2024-03-03T05:10:24.238Z,10.05
2024-03-03T05:12:51.099Z,10.19
2024-03-03T05:15:17.677Z,9.67
2024-03-03T05:17:44.248Z,9.83
2024-03-03T05:20:11.310Z,10.23
2024-03-03T05:22:38.238Z,9.82
2024-03-03T05:25:10.111Z,9.17
2024-03-03T05:27:37.528Z,9.44
2024-03-03T05:30:04.844Z,8.11
2024-03-03T05:32:31.413Z,7.91
2024-03-03T05:34:57.939Z,8.31
2024-03-03T05:37:24.707Z,8.05
2024-03-03T05:39:51.279Z,8.57
2024-03-03T05:42:18.540Z,8.94
2024-03-03T05:44:45.023Z,8.75
2024-03-03T05:47:12.690Z,9.24
2024-03-03T05:49:39.213Z,9.15
2024-03-03T05:52:05.788Z,8.74
2024-03-03T05:54:32.314Z,9.01
2024-03-03T05:56:58.786Z,9.65
2024-03-03T05:59:25.293Z,9.50
2024-03-03T06:01:53.640Z,9.78
2024-03-03T06:04:20.418Z,9.52
2024-03-03T06:06:50.407Z,9.88
2024-03-03T06:09:17.605Z,9.01
2024-03-03T06:11:44.782Z,9.55
2024-03-03T06:14:29.722Z,9.67
2024-03-03T06:16:57.542Z,9.68
2024-03-03T06:19:24.070Z,9.91
2024-03-03T06:21:53.196Z,9.66
2024-03-03T06:24:22.943Z,9.64
2024-03-03T06:26:49.539Z,9.55
2024-03-03T06:29:16.037Z,10.00
2024-03-03T06:31:46.586Z,10.20
2024-03-03T06:34:14.081Z,10.45
2024-03-03T06:36:41.330Z,10.32
2024-03-03T06:39:11.302Z,10.64
2024-03-03T06:41:37.835Z,11.05
2024-03-03T06:44:04.515Z,11.31
2024-03-03T06:46:31.071Z,11.27
2024-03-03T06:49:00.547Z,11.31
2024-03-03T06:51:27.328Z,11.31
2024-03-03T06:53:54.128Z,11.06
2024-03-03T06:56:20.617Z,10.42
2024-03-03T06:58:47.360Z,10.97
2024-03-03T07:01:14.169Z,11.14
2024-03-03T07:03:59.766Z,11.16
2024-03-03T07:06:26.292Z,11.41
2024-03-03T07:24:10.303Z,12.10
2024-03-03T07:26:37.206Z,10.98
2024-03-03T07:29:04.309Z,11.46
2024-03-03T07:31:31.523Z,11.81
2024-03-03T07:33:58.710Z,11.41
2024-03-03T07:36:46.226Z,11.97
2024-03-03T07:39:12.714Z,10.37
2024-03-03T07:41:39.152Z,10.72
2024-03-03T07:44:07.849Z,11.30
2024-03-03T07:46:36.475Z,9.58
2024-03-03T07:49:03.905Z,11.42
2024-03-03T07:54:12.463Z,10.83
2024-03-03T07:56:39.052Z,11.78
2024-03-03T07:59:06.965Z,12.09
2024-03-03T08:01:36.263Z,12.11
2024-03-03T08:04:03.739Z,12.29
2024-03-03T08:06:30.306Z,12.02
2024-03-03T08:08:56.781Z,11.93
2024-03-03T08:11:23.880Z,11.54
2024-03-03T08:13:50.349Z,11.97
2024-03-03T08:16:16.974Z,11.31
2024-03-03T08:18:43.595Z,12.14
2024-03-03T08:21:13.506Z,12.13
2024-03-03T08:23:40.400Z,12.80
2024-03-03T08:26:06.924Z,12.25
2024-03-03T08:28:36.239Z,12.21
2024-03-03T08:31:02.730Z,11.54
2024-03-03T08:33:29.216Z,11.56
2024-03-03T08:35:55.708Z,12.39
2024-03-03T08:38:22.273Z,12.85
2024-03-03T08:40:48.742Z,11.80
2024-03-03T08:43:15.260Z,11.65
2024-03-03T08:45:41.933Z,11.21
2024-03-03T08:48:08.769Z,11.35
2024-03-03T08:50:35.486Z,11.51
2024-03-03T08:53:01.989Z,10.28
2024-03-03T08:55:28.645Z,11.41
2024-03-03T08:57:55.838Z,11.73
2024-03-03T09:00:22.321Z,11.81
2024-03-03T09:02:48.863Z,12.24
2024-03-03T09:05:15.625Z,12.14
2024-03-03T09:07:42.082Z,12.73
2024-03-03T09:10:08.945Z,12.10
2024-03-03T09:12:35.457Z,12.31
2024-03-03T09:15:01.927Z,11.31
2024-03-03T09:17:28.486Z,12.53
2024-03-03T09:19:55.077Z,12.51
2024-03-03T09:22:22.080Z,12.12
2024-03-03T09:24:48.661Z,12.06
2024-03-03T09:27:15.197Z,11.46
2024-03-03T09:29:41.783Z,11.17
2024-03-03T09:32:09.596Z,10.59
2024-03-03T09:34:36.074Z,11.58
2024-03-03T09:37:02.588Z,10.37
2024-03-03T09:39:30.058Z,10.59
2024-03-03T09:41:57.315Z,11.75
2024-03-03T09:44:28.057Z,12.16
2024-03-03T09:46:55.753Z,12.06
2024-03-03T09:49:22.843Z,12.03
2024-03-03T09:51:50.446Z,12.01
2024-03-03T09:54:20.287Z,11.50
2024-03-03T09:56:48.842Z,11.71
2024-03-03T09:59:16.335Z,12.56
2024-03-03T10:01:52.796Z,12.73
2024-03-03T10:04:19.972Z,13.15
2024-03-03T10:06:55.995Z,13.42
2024-03-03T10:09:24.848Z,13.43
2024-03-03T10:11:52.522Z,13.22
2024-03-03T10:14:20.038Z,13.98
2024-03-03T10:16:46.564Z,13.07
2024-03-03T10:19:13.117Z,11.95
2024-03-03T10:21:40.211Z,12.94
2024-03-03T10:24:22.879Z,13.64
2024-03-03T10:26:50.443Z,13.54
2024-03-03T10:29:21.117Z,13.99
2024-03-03T10:31:48.721Z,13.19
2024-03-03T10:34:19.222Z,13.96
2024-03-03T10:36:45.997Z,14.00
2024-03-03T10:39:12.750Z,14.33
2024-03-03T10:41:40.751Z,13.91
2024-03-03T10:44:10.465Z,14.39
2024-03-03T10:46:39.551Z,14.37
2024-03-03T10:49:06.088Z,14.10
2024-03-03T10:51:32.700Z,14.91
2024-03-03T10:54:00.440Z,14.32
2024-03-03T10:56:27.483Z,14.86
2024-03-03T10:58:55.611Z,14.84
2024-03-03T11:01:22.729Z,15.16
2024-03-03T11:03:51.668Z,13.76
2024-03-03T11:06:18.274Z,14.67
2024-03-03T11:08:51.435Z,15.10
2024-03-03T11:11:25.146Z,15.28
2024-03-03T11:13:56.490Z,15.37
2024-03-03T11:16:27.729Z,14.76
2024-03-03T11:18:57.212Z,13.92
2024-03-03T11:21:30.168Z,14.20
2024-03-03T11:24:00.416Z,15.21
2024-03-03T11:26:29.591Z,14.29
2024-03-03T11:28:58.979Z,15.22
2024-03-03T11:31:26.108Z,15.34
2024-03-03T11:33:53.866Z,15.50
2024-03-03T11:36:21.977Z,15.56
2024-03-03T11:38:49.116Z,15.85
2024-03-03T11:41:44.931Z,14.58
2024-03-03T11:44:36.582Z,15.25
2024-03-03T11:47:06.899Z,15.23
2024-03-03T11:49:43.886Z,14.65
2024-03-03T11:52:11.009Z,15.49
2024-03-03T11:54:39.628Z,15.79
2024-03-03T11:57:12.223Z,15.95
2024-03-03T11:59:44.936Z,16.12
2024-03-03T12:02:15.765Z,15.99
2024-03-03T12:04:47.330Z,16.09
2024-03-03T12:07:19.974Z,16.26
2024-03-03T12:09:50.447Z,15.72
2024-03-03T12:12:18.316Z,16.16
2024-03-03T12:14:44.913Z,16.62
2024-03-03T12:17:11.442Z,16.51
2024-03-03T12:19:38.687Z,15.35
2024-03-03T12:22:08.521Z,15.83
2024-03-03T12:24:35.033Z,16.51
2024-03-03T12:27:05.124Z,16.67
2024-03-03T12:29:32.749Z,16.43
2024-03-03T12:32:01.781Z,16.21
2024-03-03T12:34:29.858Z,16.47
2024-03-03T12:36:57.391Z,15.94
2024-03-03T12:39:24.097Z,16.29
2024-03-03T12:41:50.798Z,16.72
2024-03-03T12:44:18.014Z,16.79
2024-03-03T12:46:50.625Z,17.25
2024-03-03T12:49:18.428Z,16.95
2024-03-03T12:51:45.365Z,17.10
2024-03-03T12:54:11.969Z,16.56
2024-03-03T12:56:38.577Z,16.81
2024-03-03T12:59:05.764Z,16.98
2024-03-03T13:07:26.661Z,16.95
2024-03-03T13:09:53.260Z,16.98
2024-03-03T13:12:19.961Z,16.44
2024-03-03T13:15:09.892Z,16.58
2024-03-03T13:18:18.280Z,16.93
2024-03-03T13:20:50.844Z,16.90
2024-03-03T13:23:18.785Z,16.79
2024-03-03T13:25:46.347Z,16.92
2024-03-03T13:28:17.558Z,16.90
2024-03-03T13:31:04.426Z,16.45
2024-03-03T13:33:34.326Z,16.23
2024-03-03T13:36:02.568Z,16.55
2024-03-03T13:38:29.132Z,16.53
2024-03-03T13:40:55.827Z,16.62
2024-03-03T13:43:22.707Z,16.54
2024-03-03T13:45:49.963Z,16.59
2024-03-03T13:48:16.980Z,16.68
2024-03-03T13:50:43.835Z,16.57
2024-03-03T13:53:11.021Z,16.50
2024-03-03T13:55:37.806Z,16.26
2024-03-03T13:58:05.637Z,16.59
2024-03-03T14:00:32.824Z,16.38
2024-03-03T14:03:02.357Z,15.98
2024-03-03T14:05:30.712Z,16.58
2024-03-03T14:07:57.916Z,16.69
2024-03-03T14:10:26.913Z,16.29
2024-03-03T14:12:54.071Z,16.69
2024-03-03T14:15:20.612Z,16.28
2024-03-03T14:17:47.838Z,16.60
2024-03-03T14:20:14.471Z,16.30
2024-03-03T14:22:41.781Z,16.29
2024-03-03T14:25:11.237Z,16.22
2024-03-03T14:27:41.540Z,16.48
2024-03-03T14:30:11.311Z,16.29
2024-03-03T14:32:56.898Z,16.20
2024-03-03T14:35:27.181Z,16.41
2024-03-03T14:37:53.682Z,16.04
2024-03-03T14:40:20.308Z,16.26
2024-03-03T14:42:46.886Z,16.26
2024-03-03T14:45:13.550Z,16.46
2024-03-03T14:47:40.141Z,16.50
2024-03-03T14:50:07.154Z,16.51
2024-03-03T14:52:33.679Z,16.24
2024-03-03T14:55:00.229Z,16.00
2024-03-03T14:57:28.423Z,16.27
2024-03-03T14:59:55.696Z,15.95
2024-03-03T15:02:22.257Z,16.26
2024-03-03T15:04:51.403Z,16.26
2024-03-03T15:07:19.713Z,16.28
2024-03-03T15:09:46.350Z,16.42
2024-03-03T15:12:14.373Z,16.30
2024-03-03T15:14:41.052Z,16.50
2024-03-03T15:17:21.329Z,16.10
2024-03-03T15:19:49.291Z,16.34
2024-03-03T15:22:15.864Z,16.36
2024-03-03T15:24:42.624Z,16.53
2024-03-03T15:27:09.134Z,16.54
2024-03-03T15:29:35.723Z,16.40
2024-03-03T15:32:02.308Z,16.37
2024-03-03T15:34:28.876Z,16.10
2024-03-03T15:36:55.440Z,16.37
2024-03-03T15:39:22.221Z,16.49
2024-03-03T15:41:48.773Z,16.25
2024-03-03T15:44:15.276Z,16.04
2024-03-03T15:46:41.746Z,16.29
2024-03-03T15:49:08.371Z,16.41
2024-03-03T15:51:38.946Z,16.12
2024-03-03T15:54:06.246Z,16.62
2024-03-03T15:56:33.310Z,16.18
2024-03-03T15:59:00.516Z,16.23
2024-03-03T16:01:27.218Z,15.78
2024-03-03T16:03:54.140Z,16.08
2024-03-03T16:06:20.702Z,15.98
2024-03-03T16:08:47.276Z,16.05
2024-03-03T16:11:14.482Z,15.89
2024-03-03T16:13:41.392Z,15.90
2024-03-03T16:16:08.428Z,15.93
2024-03-03T16:18:35.402Z,15.78
2024-03-03T16:21:01.871Z,15.91
2024-03-03T16:23:28.350Z,15.89
2024-03-03T16:25:54.835Z,16.06
2024-03-03T16:28:21.567Z,15.83
2024-03-03T16:30:48.114Z,15.85
2024-03-03T16:33:16.173Z,15.65
2024-03-03T16:35:45.475Z,15.66
2024-03-03T16:38:12.090Z,15.80
2024-03-03T16:40:38.589Z,15.69
2024-03-03T16:43:05.474Z,15.64
2024-03-03T16:45:32.104Z,15.45
2024-03-03T16:47:58.869Z,15.58
2024-03-03T16:50:26.714Z,15.34
2024-03-03T16:58:17.340Z,14.87
2024-03-03T17:00:43.829Z,15.20
2024-03-03T17:03:25.739Z,15.35
2024-03-03T17:06:14.286Z,15.54
2024-03-03T17:08:41.847Z,15.46
2024-03-03T17:11:08.556Z,15.32
2024-03-03T17:13:35.364Z,15.01
2024-03-03T17:16:02.032Z,15.19
2024-03-03T17:18:28.655Z,15.26
2024-03-03T17:20:55.215Z,15.09
2024-03-03T17:23:21.873Z,15.48
2024-03-03T17:25:50.953Z,15.41
2024-03-03T17:28:17.730Z,14.94
2024-03-03T17:30:44.414Z,15.26
2024-03-03T17:33:10.993Z,15.14
2024-03-03T17:35:37.836Z,15.26
2024-03-03T17:38:08.225Z,14.92
2024-03-03T17:40:35.347Z,14.88
2024-03-03T17:43:02.096Z,14.83
2024-03-03T17:45:28.704Z,14.41
2024-03-03T17:47:55.307Z,14.89
2024-03-03T17:50:21.850Z,14.02
2024-03-03T17:52:48.376Z,14.61
2024-03-03T17:55:15.632Z,14.34
2024-03-03T18:00:23.940Z,13.94
2024-03-03T18:02:50.474Z,14.19
2024-03-03T18:05:17.009Z,14.01
2024-03-03T18:07:43.940Z,13.80
2024-03-03T18:10:11.609Z,13.32
2024-03-03T18:12:44.795Z,13.48
2024-03-03T18:15:12.373Z,13.26
2024-03-03T18:17:40.293Z,13.67
2024-03-03T18:20:10.035Z,13.28
2024-03-03T18:22:36.983Z,13.24
2024-03-03T18:25:04.404Z,13.51
2024-03-03T18:27:32.166Z,13.13
2024-03-03T18:29:58.739Z,12.74
2024-03-03T18:32:25.315Z,12.18
2024-03-03T18:34:51.902Z,12.25
2024-03-03T18:37:18.496Z,12.70
2024-03-03T18:39:45.175Z,12.52
2024-03-03T18:42:14.009Z,12.13
2024-03-03T18:44:41.448Z,12.48
2024-03-03T18:47:09.424Z,12.12
2024-03-03T18:49:36.850Z,12.49
2024-03-03T18:52:04.441Z,12.60
2024-03-03T18:54:31.426Z,12.26
2024-03-03T18:56:58.021Z,12.31
2024-03-03T18:59:24.501Z,12.13
2024-03-03T19:01:55.551Z,12.20
2024-03-03T19:04:22.339Z,12.37
2024-03-03T19:09:27.158Z,11.68
2024-03-03T19:11:54.499Z,11.80
2024-03-03T19:14:21.031Z,11.67
2024-03-03T19:16:47.571Z,11.24
2024-03-03T19:19:14.585Z,10.88
2024-03-03T19:21:47.021Z,11.27
2024-03-03T19:24:22.927Z,10.86
2024-03-03T19:26:51.357Z,11.36
2024-03-03T19:29:17.853Z,11.55
2024-03-03T19:31:44.355Z,11.22
2024-03-03T19:34:11.002Z,11.31
2024-03-03T19:36:37.938Z,11.15
2024-03-03T19:39:04.583Z,10.55
2024-03-03T19:41:31.094Z,11.02
2024-03-03T19:43:57.957Z,11.23
2024-03-03T19:46:24.515Z,10.86
2024-03-03T19:48:51.612Z,10.62
2024-03-03T19:51:21.449Z,10.39
2024-03-03T19:53:49.057Z,10.19
2024-03-03T19:56:15.817Z,10.69
2024-03-03T19:58:42.913Z,10.98
2024-03-03T20:01:11.065Z,10.86
2024-03-03T20:03:37.582Z,10.42
2024-03-03T20:06:05.181Z,11.04
2024-03-03T20:08:32.062Z,10.44
2024-03-03T20:11:00.502Z,10.50
2024-03-03T20:13:27.451Z,10.70
2024-03-03T20:18:55.402Z,10.25
2024-03-03T20:21:25.215Z,10.19
2024-03-03T20:23:53.724Z,10.62
2024-03-03T20:26:20.363Z,9.88
2024-03-03T20:28:47.051Z,10.14
2024-03-03T20:31:35.424Z,10.45
2024-03-03T20:34:04.453Z,9.57
2024-03-03T20:36:31.577Z,9.79
2024-03-03T20:38:58.182Z,9.57
2024-03-03T20:41:25.775Z,10.13
2024-03-03T20:43:54.065Z,10.51
2024-03-03T20:46:20.884Z,10.21
2024-03-03T20:48:47.511Z,10.57
2024-03-03T20:51:15.395Z,10.55
2024-03-03T20:53:42.063Z,10.27
2024-03-03T20:56:08.555Z,9.72
2024-03-03T20:58:35.113Z,9.46
2024-03-03T21:01:03.186Z,9.55
2024-03-03T21:03:29.810Z,8.73
2024-03-03T21:05:56.351Z,9.26
2024-03-03T21:08:22.839Z,9.98
2024-03-03T21:10:49.420Z,9.49
2024-03-03T21:13:16.061Z,9.90
2024-03-03T21:15:42.545Z,9.97
2024-03-03T21:18:09.428Z,9.72
2024-03-03T21:20:36.304Z,10.01
2024-03-03T21:23:04.143Z,9.88
2024-03-03T21:25:32.593Z,9.55
2024-03-03T21:27:59.277Z,9.67
2024-03-03T21:30:26.497Z,9.68
2024-03-03T21:32:53.255Z,10.00
2024-03-03T21:35:19.843Z,9.70
2024-03-03T21:37:46.379Z,9.67
2024-03-03T21:40:13.327Z,9.58
2024-03-03T21:42:40.086Z,9.89
2024-03-03T21:45:10.478Z,9.56
2024-03-03T21:47:37.175Z,9.00
2024-03-03T21:50:04.009Z,9.47
2024-03-03T21:52:30.572Z,9.35
2024-03-03T21:54:57.195Z,9.01
2024-03-03T21:57:23.710Z,9.12
2024-03-03T21:59:50.223Z,8.98
2024-03-03T22:02:17.109Z,8.88
2024-03-03T22:04:43.822Z,9.42
2024-03-03T22:07:11.088Z,9.76
2024-03-03T22:09:37.640Z,9.52
2024-03-03T22:12:04.268Z,9.59
2024-03-03T22:14:30.742Z,9.75
2024-03-03T22:16:57.189Z,9.55
2024-03-03T22:19:23.759Z,9.63
2024-03-03T22:21:50.328Z,9.15
2024-03-03T22:24:17.097Z,9.54
2024-03-03T22:26:43.830Z,9.82
2024-03-03T22:29:11.172Z,9.80
2024-03-03T22:31:38.382Z,9.64
2024-03-03T22:34:04.949Z,10.14
2024-03-03T22:36:31.624Z,9.78
2024-03-03T22:38:58.150Z,9.96
2024-03-03T22:41:24.644Z,10.07
2024-03-03T22:43:51.121Z,10.18
2024-03-03T22:46:17.760Z,9.90
2024-03-03T22:48:44.376Z,10.41
2024-03-03T22:51:12.628Z,10.52
2024-03-03T22:53:39.127Z,10.63
2024-03-03T22:56:06.291Z,10.82
2024-03-03T23:01:28.417Z,9.79
2024-03-03T23:03:54.994Z,9.76
2024-03-03T23:06:21.730Z,9.52
2024-03-03T23:08:48.258Z,9.74
2024-03-03T23:11:15.457Z,9.89
2024-03-03T23:16:30.514Z,10.39
2024-03-03T23:18:57.107Z,10.05
2024-03-03T23:21:32.883Z,11.00
2024-03-03T23:24:01.846Z,10.52
2024-03-03T23:26:29.091Z,10.92
2024-03-03T23:28:58.684Z,11.18
2024-03-03T23:31:25.573Z,10.15
2024-03-03T23:33:52.228Z,10.18
2024-03-03T23:36:18.766Z,11.19
2024-03-03T23:38:45.214Z,10.51
2024-03-03T23:41:12.022Z,11.16
2024-03-03T23:43:38.758Z,11.07
2024-03-03T23:46:05.856Z,10.69
2024-03-03T23:48:33.067Z,11.17
2024-03-03T23:51:00.666Z,10.46
2024-03-03T23:53:36.720Z,9.59
2024-03-03T23:56:04.767Z,9.84
2024-03-03T23:58:31.343Z,10.19
